createdAt,value
2022-11-29T00:00:49.981Z,85.40
2022-11-29T00:03:16.424Z,84.97
2022-11-29T00:05:43.232Z,84.84
2022-11-29T00:08:09.568Z,84.87
2022-11-29T00:10:37.270Z,85.43
2022-11-29T00:13:04.364Z,85.13
2022-11-29T00:15:30.802Z,84.71
2022-11-29T00:17:57.086Z,85.13
2022-11-29T00:20:23.727Z,85.45
2022-11-29T00:22:50.121Z,85.89
2022-11-29T00:25:16.479Z,86.00
2022-11-29T00:27:42.823Z,85.73
2022-11-29T00:30:09.834Z,85.68
2022-11-29T00:32:36.461Z,85.79
2022-11-29T00:35:09.333Z,86.62
2022-11-29T00:37:36.165Z,86.95
2022-11-29T00:40:03.835Z,86.52
2022-11-29T00:42:30.535Z,86.34
2022-11-29T00:44:57.166Z,86.77
2022-11-29T00:47:23.790Z,86.85
2022-11-29T00:49:50.154Z,87.23
2022-11-29T00:52:16.472Z,87.41
2022-11-29T00:54:43.233Z,87.88
2022-11-29T00:57:09.793Z,87.20
2022-11-29T00:59:36.129Z,87.35
2022-11-29T01:02:02.515Z,87.81
2022-11-29T01:04:28.949Z,87.36
2022-11-29T01:06:55.485Z,87.42
2022-11-29T01:09:21.798Z,87.99
2022-11-29T01:11:49.629Z,88.70
2022-11-29T01:14:16.138Z,87.57
2022-11-29T01:16:42.483Z,86.71
2022-11-29T01:19:08.975Z,87.46
2022-11-29T01:21:35.643Z,87.54
2022-11-29T01:24:02.312Z,88.37
2022-11-29T01:26:30.704Z,88.59
2022-11-29T01:28:58.749Z,88.55
2022-11-29T01:31:27.841Z,88.97
2022-11-29T01:33:55.984Z,88.62
2022-11-29T01:36:23.523Z,87.74
2022-11-29T01:38:50.634Z,87.84
2022-11-29T01:41:21.076Z,88.42
2022-11-29T01:44:07.370Z,88.99
2022-11-29T01:46:40.143Z,89.08
2022-11-29T01:49:23.209Z,89.21
2022-11-29T01:52:19.819Z,89.43
2022-11-29T01:54:52.329Z,88.31
2022-11-29T01:57:20.583Z,88.04
2022-11-29T01:59:51.080Z,88.58
2022-11-29T02:02:29.305Z,88.94
2022-11-29T02:04:58.099Z,88.02
2022-11-29T02:07:24.519Z,88.56
2022-11-29T02:09:50.933Z,88.67
2022-11-29T02:12:37.994Z,89.17
2022-11-29T02:15:19.276Z,88.08
2022-11-29T02:17:59.902Z,88.69
2022-11-29T02:21:03.413Z,88.86
2022-11-29T02:23:38.979Z,88.40
2022-11-29T02:26:43.215Z,88.25
2022-11-29T02:29:21.961Z,87.98
2022-11-29T02:32:19.305Z,88.54
2022-11-29T02:35:01.132Z,88.73
2022-11-29T02:37:48.565Z,88.80
2022-11-29T02:40:30.518Z,88.30
2022-11-29T02:43:17.401Z,88.61
2022-11-29T02:45:53.789Z,89.16
2022-11-29T02:48:29.077Z,89.24
2022-11-29T02:51:07.018Z,89.32
2022-11-29T02:53:44.346Z,88.94
2022-11-29T02:56:20.809Z,88.34
2022-11-29T02:58:54.201Z,88.75
2022-11-29T03:01:28.719Z,88.46
2022-11-29T03:04:04.389Z,88.84
2022-11-29T03:06:51.282Z,88.87
2022-11-29T03:09:34.343Z,88.93
2022-11-29T03:12:17.375Z,88.89
2022-11-29T03:15:02.546Z,88.34
2022-11-29T03:17:48.408Z,88.83
2022-11-29T03:20:26.189Z,89.15
2022-11-29T03:23:20.682Z,89.46
2022-11-29T03:26:14.502Z,89.71
2022-11-29T03:28:56.552Z,89.95
2022-11-29T03:31:32.004Z,89.88
2022-11-29T03:34:24.473Z,89.80
2022-11-29T03:37:00.972Z,89.92
2022-11-29T03:39:42.702Z,90.02
2022-11-29T03:42:16.311Z,89.88
2022-11-29T03:44:51.016Z,90.11
2022-11-29T03:47:24.223Z,90.26
2022-11-29T03:50:03.154Z,90.04
2022-11-29T03:52:53.683Z,89.89
2022-11-29T03:55:50.760Z,89.18
2022-11-29T03:58:34.363Z,89.10
2022-11-29T04:01:03.666Z,89.51
2022-11-29T04:03:59.226Z,90.09
2022-11-29T04:06:44.496Z,90.09
2022-11-29T04:09:26.231Z,89.93
2022-11-29T04:12:00.119Z,89.66
2022-11-29T04:14:51.513Z,89.72
2022-11-29T04:17:34.505Z,89.70
2022-11-29T04:20:22.245Z,89.93
2022-11-29T04:23:21.910Z,89.27
2022-11-29T04:25:57.344Z,89.80
2022-11-29T04:28:57.728Z,89.89
2022-11-29T04:31:51.320Z,90.34
2022-11-29T04:34:37.856Z,90.67
2022-11-29T04:37:34.230Z,89.94
2022-11-29T04:40:20.226Z,89.91
2022-11-29T04:43:14.311Z,90.29
2022-11-29T04:46:12.088Z,90.64
2022-11-29T04:49:00.184Z,90.81
2022-11-29T04:52:03.327Z,90.66
2022-11-29T04:54:37.502Z,90.58
2022-11-29T04:57:24.806Z,90.41
2022-11-29T05:00:07.110Z,90.65
2022-11-29T05:02:48.595Z,90.76
2022-11-29T05:06:00.729Z,90.75
2022-11-29T05:09:08.645Z,91.39
2022-11-29T05:11:47.022Z,91.66
2022-11-29T05:14:26.854Z,91.25
2022-11-29T05:17:14.870Z,90.97
2022-11-29T05:19:59.578Z,91.17
2022-11-29T05:22:44.221Z,90.92
2022-11-29T05:25:16.827Z,91.24
2022-11-29T05:28:10.426Z,91.27
2022-11-29T05:30:48.572Z,91.58
2022-11-29T05:33:57.405Z,91.31
2022-11-29T05:36:36.010Z,91.00
2022-11-29T05:39:20.796Z,90.39
2022-11-29T05:42:34.529Z,90.17
2022-11-29T05:45:25.355Z,90.36
2022-11-29T05:48:18.898Z,90.31
2022-11-29T05:51:14.897Z,89.76
2022-11-29T05:53:55.017Z,89.51
2022-11-29T05:56:48.660Z,88.25
2022-11-29T05:59:23.568Z,88.76
2022-11-29T06:02:02.038Z,89.05
2022-11-29T06:04:54.810Z,87.63
2022-11-29T06:07:45.474Z,87.03
2022-11-29T06:10:18.225Z,87.25
2022-11-29T06:13:30.658Z,88.03
2022-11-29T06:16:06.069Z,88.49
2022-11-29T06:18:59.992Z,88.68
2022-11-29T06:21:34.017Z,88.68
2022-11-29T06:24:25.718Z,88.52
2022-11-29T06:27:02.119Z,88.41
2022-11-29T06:30:05.751Z,88.65
2022-11-29T06:32:42.805Z,88.56
2022-11-29T06:35:12.401Z,89.23
2022-11-29T06:37:43.354Z,88.66
2022-11-29T06:40:12.410Z,88.88
2022-11-29T06:42:38.741Z,89.42
2022-11-29T06:45:06.129Z,89.37
2022-11-29T06:47:45.077Z,89.61
2022-11-29T06:50:34.262Z,89.82
2022-11-29T06:53:16.721Z,89.41
2022-11-29T06:55:58.421Z,89.73
2022-11-29T06:58:40.241Z,89.36
2022-11-29T07:01:23.390Z,89.21
2022-11-29T07:04:07.249Z,88.49
2022-11-29T07:06:34.594Z,88.70
2022-11-29T07:09:14.197Z,88.93
2022-11-29T07:11:41.491Z,89.21
2022-11-29T07:14:08.112Z,89.78
2022-11-29T07:16:46.277Z,89.78
2022-11-29T07:19:37.585Z,89.90
2022-11-29T07:22:33.486Z,89.46
2022-11-29T07:25:29.049Z,90.02
2022-11-29T07:28:19.844Z,89.94
2022-11-29T07:30:56.451Z,89.71
2022-11-29T07:33:37.840Z,89.52
2022-11-29T07:36:38.841Z,88.78
2022-11-29T07:39:23.569Z,88.32
2022-11-29T07:42:19.276Z,89.09
2022-11-29T07:45:01.680Z,89.38
2022-11-29T07:47:32.596Z,89.61
2022-11-29T07:50:01.864Z,89.90
2022-11-29T07:52:28.598Z,90.06
2022-11-29T07:54:55.679Z,89.90
2022-11-29T07:57:22.182Z,90.29
2022-11-29T07:59:48.875Z,90.20
2022-11-29T08:02:15.526Z,89.70
2022-11-29T08:04:43.397Z,89.50
2022-11-29T08:07:10.602Z,89.94
2022-11-29T08:09:37.031Z,89.78
2022-11-29T08:12:03.742Z,89.65
2022-11-29T08:14:33.338Z,89.43
2022-11-29T08:16:59.813Z,89.39
2022-11-29T08:19:26.306Z,89.41
2022-11-29T08:21:52.792Z,89.64
2022-11-29T08:24:19.334Z,89.61
2022-11-29T08:26:56.290Z,89.31
2022-11-29T08:29:22.836Z,89.41
2022-11-29T08:31:53.276Z,88.58
2022-11-29T08:34:23.736Z,88.51
2022-11-29T08:36:51.193Z,88.28
2022-11-29T08:39:17.704Z,88.45
2022-11-29T08:41:44.128Z,88.75
2022-11-29T08:44:10.479Z,88.87
2022-11-29T08:46:36.837Z,88.16
2022-11-29T08:49:03.446Z,87.44
2022-11-29T08:51:29.789Z,87.80
2022-11-29T08:53:56.268Z,88.65
2022-11-29T08:59:09.292Z,89.35
2022-11-29T09:01:35.854Z,89.36
2022-11-29T09:04:02.313Z,88.88
2022-11-29T09:06:31.846Z,89.17
2022-11-29T09:08:59.382Z,89.58
2022-11-29T09:11:27.640Z,89.19
2022-11-29T09:13:57.282Z,88.99
2022-11-29T09:16:26.550Z,89.07
2022-11-29T09:18:53.353Z,89.63
2022-11-29T09:21:19.753Z,89.46
2022-11-29T09:23:46.195Z,89.69
2022-11-29T09:26:18.063Z,89.60
2022-11-29T09:28:44.708Z,88.18
2022-11-29T09:31:14.648Z,88.42
2022-11-29T09:33:41.371Z,88.72
2022-11-29T09:36:10.584Z,88.65
2022-11-29T09:38:37.774Z,89.10
2022-11-29T09:41:31.574Z,88.92
2022-11-29T09:44:16.522Z,88.66
2022-11-29T09:47:17.072Z,89.17
2022-11-29T09:49:59.342Z,88.83
2022-11-29T09:52:42.864Z,88.69
2022-11-29T09:55:33.490Z,88.54
2022-11-29T09:58:01.325Z,88.29
2022-11-29T10:00:29.466Z,87.62
2022-11-29T10:03:10.082Z,87.84
2022-11-29T10:05:50.723Z,87.79
2022-11-29T10:08:33.465Z,88.21
2022-11-29T10:11:16.392Z,88.19
2022-11-29T10:13:48.820Z,87.85
2022-11-29T10:16:31.137Z,87.23
2022-11-29T10:19:22.282Z,86.90
2022-11-29T10:22:03.690Z,86.44
2022-11-29T10:24:32.666Z,85.91
2022-11-29T10:26:59.217Z,85.07
2022-11-29T10:29:26.533Z,86.34
2022-11-29T10:31:54.386Z,85.65
2022-11-29T10:34:24.393Z,84.76
2022-11-29T10:36:56.857Z,85.80
2022-11-29T10:39:30.821Z,85.23
2022-11-29T10:42:01.390Z,84.30
2022-11-29T10:44:28.857Z,84.25
2022-11-29T10:46:55.973Z,84.86
2022-11-29T10:49:27.782Z,84.87
2022-11-29T10:51:54.209Z,84.17
2022-11-29T10:54:27.731Z,84.44
2022-11-29T10:56:56.369Z,84.60
2022-11-29T10:59:26.619Z,84.80
2022-11-29T11:01:54.078Z,85.00
2022-11-29T11:04:34.446Z,84.91
2022-11-29T11:07:04.101Z,84.74
2022-11-29T11:09:47.417Z,85.10
2022-11-29T11:12:13.744Z,84.28
2022-11-29T11:14:41.130Z,84.58
2022-11-29T11:17:30.966Z,82.46
2022-11-29T11:20:20.207Z,83.80
2022-11-29T11:23:03.640Z,83.79
2022-11-29T11:25:34.597Z,83.32
2022-11-29T11:28:22.980Z,83.15
2022-11-29T11:30:52.165Z,84.24
2022-11-29T11:33:28.436Z,85.03
2022-11-29T11:36:06.413Z,84.76
2022-11-29T11:38:39.343Z,84.09
2022-11-29T11:41:11.984Z,83.42
2022-11-29T11:43:39.571Z,82.59
2022-11-29T11:46:08.095Z,82.68
2022-11-29T11:48:35.181Z,83.74
2022-11-29T11:51:02.109Z,84.56
2022-11-29T11:53:34.460Z,84.70
2022-11-29T11:56:04.659Z,83.83
2022-11-29T11:58:43.294Z,84.10
2022-11-29T12:01:12.857Z,84.41
2022-11-29T12:04:00.843Z,84.23
2022-11-29T12:06:35.344Z,84.01
2022-11-29T12:09:42.893Z,83.48
2022-11-29T12:12:34.422Z,82.70
2022-11-29T12:15:21.309Z,84.08
2022-11-29T12:18:06.782Z,84.77
2022-11-29T12:20:46.592Z,84.67
2022-11-29T12:23:27.385Z,83.83
2022-11-29T12:26:01.443Z,82.46
2022-11-29T12:28:31.700Z,82.38
2022-11-29T12:31:13.479Z,82.08
2022-11-29T12:33:59.525Z,82.99
2022-11-29T12:37:11.131Z,84.03
2022-11-29T12:39:47.478Z,83.50
2022-11-29T12:42:42.389Z,83.94
2022-11-29T12:45:27.718Z,84.67
2022-11-29T12:48:01.179Z,85.04
2022-11-29T12:50:51.986Z,84.86
2022-11-29T12:53:29.927Z,85.42
2022-11-29T12:56:26.535Z,85.23
2022-11-29T12:59:03.838Z,84.61
2022-11-29T13:02:10.270Z,83.97
2022-11-29T13:04:56.500Z,84.63
2022-11-29T13:07:58.390Z,84.32
2022-11-29T13:10:31.160Z,83.96
2022-11-29T13:13:29.833Z,83.59
2022-11-29T13:16:08.669Z,84.73
2022-11-29T13:18:37.773Z,85.54
2022-11-29T13:21:10.857Z,85.80
2022-11-29T13:24:07.859Z,85.64
2022-11-29T13:26:34.794Z,86.17
2022-11-29T13:29:03.340Z,86.49
2022-11-29T13:31:30.749Z,86.11
2022-11-29T13:34:13.748Z,85.92
2022-11-29T13:37:03.979Z,86.34
2022-11-29T13:39:50.610Z,85.47
2022-11-29T13:42:21.454Z,85.69
2022-11-29T13:45:10.741Z,85.59
2022-11-29T13:47:58.582Z,86.12
2022-11-29T13:50:42.505Z,85.56
2022-11-29T13:53:19.246Z,85.73
2022-11-29T13:55:47.320Z,86.06
2022-11-29T13:58:42.889Z,84.96
2022-11-29T14:01:11.564Z,84.62
2022-11-29T14:03:40.720Z,85.03
2022-11-29T14:06:13.415Z,85.74
2022-11-29T14:09:17.840Z,85.79
2022-11-29T14:11:42.030Z,86.04
2022-11-29T14:14:11.194Z,86.10
2022-11-29T14:16:43.604Z,85.25
2022-11-29T14:19:09.900Z,85.86
2022-11-29T14:21:58.793Z,86.01
2022-11-29T14:24:34.418Z,85.79
2022-11-29T14:27:06.920Z,85.83
2022-11-29T14:29:48.579Z,86.57
2022-11-29T14:32:32.595Z,86.52
2022-11-29T14:35:29.877Z,86.38
2022-11-29T14:38:17.191Z,85.79
2022-11-29T14:40:58.491Z,86.18
2022-11-29T14:43:35.418Z,86.20
2022-11-29T14:46:07.755Z,86.43
2022-11-29T14:48:34.865Z,86.51
2022-11-29T14:51:10.975Z,87.04
2022-11-29T14:53:41.234Z,87.19
2022-11-29T14:56:29.281Z,87.16
2022-11-29T14:59:33.496Z,87.70
2022-11-29T15:02:02.549Z,88.50
2022-11-29T15:04:33.862Z,88.71
2022-11-29T15:07:01.691Z,89.06
2022-11-29T15:09:29.955Z,89.30
2022-11-29T15:12:02.134Z,88.95
2022-11-29T15:15:11.645Z,89.51
2022-11-29T15:17:53.183Z,89.88
2022-11-29T15:20:25.807Z,90.27
2022-11-29T15:22:55.191Z,90.59
2022-11-29T15:25:30.130Z,90.82
2022-11-29T15:27:57.363Z,91.05
2022-11-29T15:30:39.388Z,91.34
2022-11-29T15:33:26.028Z,91.48
2022-11-29T15:36:05.028Z,91.73
2022-11-29T15:38:42.286Z,91.32
2022-11-29T15:41:27.143Z,91.47
2022-11-29T15:43:56.967Z,91.72
2022-11-29T15:46:28.561Z,91.81
2022-11-29T15:48:55.614Z,91.79
2022-11-29T15:51:37.048Z,91.79
2022-11-29T15:54:13.801Z,91.72
2022-11-29T15:56:52.082Z,91.31
2022-11-29T15:59:33.938Z,91.62
2022-11-29T16:02:09.722Z,91.87
2022-11-29T16:04:46.322Z,92.05
2022-11-29T16:07:14.433Z,92.46
2022-11-29T16:09:44.310Z,92.43
2022-11-29T16:12:16.273Z,92.73
2022-11-29T16:14:55.233Z,92.53
2022-11-29T16:17:26.033Z,92.34
2022-11-29T16:20:16.005Z,92.47
2022-11-29T16:22:42.885Z,92.04
2022-11-29T16:25:18.804Z,92.32
2022-11-29T16:27:46.246Z,92.04
2022-11-29T16:30:24.481Z,91.82
2022-11-29T16:32:55.678Z,91.53
2022-11-29T16:35:26.257Z,91.68
2022-11-29T16:37:53.200Z,91.66
2022-11-29T16:40:25.673Z,91.88
2022-11-29T16:43:04.369Z,92.05
2022-11-29T16:45:39.659Z,92.15
2022-11-29T16:48:30.629Z,91.53
2022-11-29T16:51:12.270Z,91.54
2022-11-29T16:53:41.262Z,91.63
2022-11-29T16:56:12.537Z,91.71
2022-11-29T16:59:16.966Z,91.57
2022-11-29T17:01:29.384Z,91.88
2022-11-29T17:03:58.693Z,92.02
2022-11-29T17:06:26.949Z,92.02
2022-11-29T17:08:55.942Z,92.14
2022-11-29T17:11:22.688Z,91.81
2022-11-29T17:13:49.883Z,92.03
2022-11-29T17:16:19.050Z,91.74
2022-11-29T17:18:45.642Z,92.02
2022-11-29T17:21:22.850Z,91.76
2022-11-29T17:23:50.609Z,91.74
2022-11-29T17:26:17.594Z,91.94
2022-11-29T17:28:45.673Z,91.94
2022-11-29T17:31:15.020Z,92.15
2022-11-29T17:33:41.810Z,92.06
2022-11-29T17:36:10.848Z,91.99
2022-11-29T17:38:37.770Z,92.13
2022-11-29T17:41:08.330Z,92.24
2022-11-29T17:43:36.134Z,91.93
2022-11-29T17:46:14.533Z,92.04
2022-11-29T17:48:41.467Z,92.34
2022-11-29T17:51:22.815Z,92.16
2022-11-29T17:53:55.273Z,92.09
2022-11-29T17:56:24.593Z,92.17
2022-11-29T17:58:53.257Z,92.38
2022-11-29T18:01:22.981Z,92.13
2022-11-29T18:03:52.739Z,92.22
2022-11-29T18:06:23.150Z,92.17
2022-11-29T18:08:51.589Z,92.09
2022-11-29T18:11:23.422Z,92.13
2022-11-29T18:13:50.203Z,92.34
2022-11-29T18:16:19.111Z,92.38
2022-11-29T18:18:46.661Z,91.80
2022-11-29T18:21:14.287Z,91.96
2022-11-29T18:23:42.695Z,91.85
2022-11-29T18:26:14.566Z,92.28
2022-11-29T18:28:42.504Z,92.19
2022-11-29T18:31:17.587Z,91.96
2022-11-29T18:33:46.169Z,91.87
2022-11-29T18:36:15.542Z,92.08
2022-11-29T18:38:43.784Z,91.96
2022-11-29T18:41:15.714Z,92.00
2022-11-29T18:43:42.618Z,92.08
2022-11-29T18:46:14.132Z,92.10
2022-11-29T18:48:41.242Z,92.37
2022-11-29T18:51:10.616Z,92.41
2022-11-29T18:53:38.398Z,92.28
2022-11-29T18:56:11.045Z,92.00
2022-11-29T18:58:37.640Z,92.21
2022-11-29T19:01:08.257Z,92.26
2022-11-29T19:03:43.688Z,92.14
2022-11-29T19:06:11.529Z,92.00
2022-11-29T19:08:38.417Z,91.76
2022-11-29T19:11:06.964Z,91.79
2022-11-29T19:13:34.119Z,91.92
2022-11-29T19:16:01.719Z,92.11
2022-11-29T19:18:28.513Z,92.23
2022-11-29T19:21:05.765Z,92.07
2022-11-29T19:23:32.233Z,92.33
2022-11-29T19:26:07.026Z,92.32
2022-11-29T19:28:36.680Z,92.68
2022-11-29T19:31:03.353Z,92.93
2022-11-29T19:33:29.843Z,92.82
2022-11-29T19:35:56.231Z,92.88
2022-11-29T19:38:22.563Z,93.15
2022-11-29T19:40:49.034Z,92.86
2022-11-29T19:43:15.424Z,92.92
2022-11-29T19:45:41.720Z,92.84
2022-11-29T19:48:08.021Z,92.90
2022-11-29T19:50:34.682Z,92.99
2022-11-29T19:53:01.054Z,92.76
2022-11-29T19:55:27.380Z,92.82
2022-11-29T19:57:55.481Z,92.76
2022-11-29T20:00:22.680Z,93.03
2022-11-29T20:02:49.065Z,92.59
2022-11-29T20:05:15.772Z,92.45
2022-11-29T20:07:42.145Z,92.38
2022-11-29T20:10:09.095Z,92.40
2022-11-29T20:12:35.661Z,92.50
2022-11-29T20:15:01.965Z,92.55
2022-11-29T20:17:28.422Z,91.96
2022-11-29T20:19:54.908Z,92.45
2022-11-29T20:22:21.530Z,92.52
2022-11-29T20:24:47.874Z,92.57
2022-11-29T20:27:14.291Z,92.63
2022-11-29T20:29:40.621Z,92.46
2022-11-29T20:32:06.944Z,92.46
2022-11-29T20:34:33.875Z,92.63
2022-11-29T20:37:20.546Z,92.37
2022-11-29T20:39:52.939Z,92.74
2022-11-29T20:42:28.404Z,92.82
2022-11-29T20:44:57.858Z,92.86
2022-11-29T20:47:27.479Z,92.93
2022-11-29T20:49:54.699Z,92.90
2022-11-29T20:52:42.260Z,92.59
2022-11-29T20:55:08.775Z,92.69
2022-11-29T20:57:35.262Z,92.92
2022-11-29T21:00:01.700Z,92.94
2022-11-29T21:02:28.456Z,92.71
2022-11-29T21:04:54.887Z,92.73
2022-11-29T21:07:21.567Z,92.87
2022-11-29T21:09:47.922Z,92.47
2022-11-29T21:12:14.880Z,92.66
2022-11-29T21:14:41.500Z,92.85
2022-11-29T21:17:08.806Z,92.96
2022-11-29T21:19:35.643Z,92.85
2022-11-29T21:22:15.733Z,93.12
2022-11-29T21:25:01.962Z,93.07
2022-11-29T21:27:34.266Z,93.11
2022-11-29T21:30:02.107Z,92.86
2022-11-29T21:32:28.761Z,92.74
2022-11-29T21:34:55.607Z,93.07
2022-11-29T21:37:26.137Z,93.38
2022-11-29T21:39:53.159Z,93.40
2022-11-29T21:42:19.749Z,93.64
2022-11-29T21:44:46.812Z,93.70
2022-11-29T21:47:13.435Z,93.69
2022-11-29T21:49:40.173Z,93.57
2022-11-29T21:52:06.745Z,93.48
2022-11-29T21:54:33.372Z,93.29
2022-11-29T21:57:00.429Z,93.30
2022-11-29T21:59:26.759Z,93.24
2022-11-29T22:01:53.660Z,93.15
2022-11-29T22:04:20.474Z,92.83
2022-11-29T22:06:47.117Z,92.98
2022-11-29T22:09:13.583Z,92.71
2022-11-29T22:11:40.262Z,92.84
2022-11-29T22:14:12.508Z,93.06
2022-11-29T22:16:43.513Z,93.19
2022-11-29T22:19:11.030Z,93.46
2022-11-29T22:21:38.692Z,93.50
2022-11-29T22:24:05.451Z,93.57
2022-11-29T22:26:31.835Z,93.55
2022-11-29T22:28:58.257Z,93.80
2022-11-29T22:31:24.583Z,93.75
2022-11-29T22:33:53.947Z,93.80
2022-11-29T22:36:20.545Z,93.91
2022-11-29T22:38:46.880Z,93.85
2022-11-29T22:41:14.411Z,94.09
2022-11-29T22:43:41.427Z,94.17
2022-11-29T22:46:10.688Z,94.11
2022-11-29T22:48:39.134Z,94.01
2022-11-29T22:51:08.225Z,94.33
2022-11-29T22:53:35.750Z,94.09
2022-11-29T22:56:04.010Z,94.08
2022-11-29T22:58:30.717Z,93.77
2022-11-29T23:01:10.671Z,93.97
2022-11-29T23:03:39.574Z,93.99
2022-11-29T23:06:11.798Z,94.02
2022-11-29T23:08:39.745Z,93.97
2022-11-29T23:11:07.550Z,93.96
2022-11-29T23:13:36.101Z,94.34
2022-11-29T23:16:05.076Z,94.00
2022-11-29T23:18:32.308Z,93.83
2022-11-29T23:21:03.143Z,93.83
2022-11-29T23:23:30.255Z,93.90
2022-11-29T23:25:56.949Z,93.86
2022-11-29T23:28:24.457Z,93.81
2022-11-29T23:30:51.572Z,93.58
2022-11-29T23:33:18.049Z,93.44
2022-11-29T23:35:44.786Z,93.39
2022-11-29T23:38:11.202Z,93.30
2022-11-29T23:40:37.523Z,93.35
2022-11-29T23:43:03.868Z,93.10
2022-11-29T23:45:30.391Z,93.18
2022-11-29T23:47:56.870Z,93.00
2022-11-29T23:50:23.933Z,93.06
2022-11-29T23:52:54.417Z,93.09
2022-11-29T23:55:22.128Z,93.21
2022-11-29T23:57:48.680Z,93.33
